Time;durP1;ratioP1;P1;durP2;ratioP2;P2;SDS_P1;SDS_P2;PMS_P1;PMS_P2;Temp;Humidity;BMP_temperature;BMP_pressure;BME280_temperature;BME280_humidity;BME280_pressure;Samples;Min_cycle;Max_cycle;Signal;HPM_P1;HPM_P2
2022/02/04 00:07:16;;;;;;;21.08;11.25;;;6.40;99.90;;;;;;5069009;28;20028;-73
2022/02/04 00:23:31;;;;;;;14.18;10.23;;;6.50;99.90;;;;;;5068410;28;20086;-73
2022/02/04 00:26:04;;;;;;;19.30;11.25;;;6.50;99.90;;;;;;5051004;28;20195;-73
2022/02/04 00:33:49;;;;;;;18.95;11.15;;;6.60;99.90;;;;;;5068386;28;20032;-74
2022/02/04 00:36:24;;;;;;;18.10;10.88;;;6.60;99.90;;;;;;5049783;28;20385;-74
2022/02/04 00:38:53;;;;;;;22.92;12.20;;;6.60;99.90;;;;;;5068086;28;20175;-74
2022/02/04 00:41:23;;;;;;;18.40;11.30;;;6.60;99.90;;;;;;5050802;28;20031;-74
2022/02/04 00:43:55;;;;;;;20.15;11.68;;;6.60;99.90;;;;;;5068103;28;20040;-74
2022/02/04 00:46:55;;;;;;;20.95;12.30;;;6.70;99.90;;;;;;5049657;28;20332;-74
2022/02/04 00:49:17;;;;;;;20.50;10.82;;;6.70;99.90;;;;;;5067776;28;20032;-73
2022/02/04 00:52:02;;;;;;;24.15;11.23;;;6.70;99.90;;;;;;5067575;28;20021;-74
2022/02/04 00:54:57;;;;;;;19.23;11.23;;;6.80;99.90;;;;;;5068543;28;20040;-73
2022/02/04 00:57:35;;;;;;;23.60;12.23;;;6.80;99.90;;;;;;5066844;28;20117;-74
2022/02/04 01:27:10;;;;;;;20.65;11.25;;;7.00;99.90;;;;;;5064551;28;20106;-74
2022/02/04 01:29:46;;;;;;;19.92;11.57;;;7.00;99.90;;;;;;5066998;28;20485;-73
2022/02/04 01:32:13;;;;;;;16.58;10.98;;;7.00;99.90;;;;;;5066934;28;20406;-73
2022/02/04 01:34:39;;;;;;;18.27;11.80;;;7.10;99.90;;;;;;5067211;28;20429;-74
2022/02/04 01:37:04;;;;;;;19.10;11.65;;;7.10;99.90;;;;;;5067581;28;20032;-74
2022/02/04 01:39:30;;;;;;;19.25;11.27;;;7.10;99.90;;;;;;5048779;28;20054;-74
2022/02/04 01:41:56;;;;;;;19.05;10.90;;;7.10;99.90;;;;;;5071141;28;20040;-73
2022/02/04 01:44:26;;;;;;;21.75;11.88;;;7.10;99.90;;;;;;5085532;28;20470;-74
2022/02/04 01:46:52;;;;;;;20.88;11.77;;;7.10;99.90;;;;;;5086502;28;20089;-74
2022/02/04 01:49:18;;;;;;;20.00;11.73;;;7.10;99.90;;;;;;5087957;28;20478;-74
2022/02/04 01:51:45;;;;;;;20.40;11.35;;;7.10;99.90;;;;;;5071203;28;20040;-74
2022/02/04 01:54:12;;;;;;;21.73;11.60;;;7.10;99.90;;;;;;5068109;28;20116;-73
2022/02/04 01:56:37;;;;;;;18.23;11.65;;;7.20;99.90;;;;;;5071357;28;20402;-76
2022/02/04 01:59:03;;;;;;;16.52;11.20;;;7.20;99.90;;;;;;5071466;28;20028;-77
2022/02/04 02:01:29;;;;;;;15.73;10.88;;;7.20;99.90;;;;;;5070051;28;20082;-76
2022/02/04 02:03:56;;;;;;;16.73;10.77;;;7.20;99.90;;;;;;5053229;28;20040;-77
2022/02/04 02:06:57;;;;;;;20.25;11.38;;;7.20;99.90;;;;;;5071241;28;20025;-77
2022/02/04 02:09:30;;;;;;;16.58;10.55;;;7.20;99.90;;;;;;5031811;28;20494;-77
2022/02/04 02:12:00;;;;;;;17.95;11.05;;;7.20;99.90;;;;;;5053266;28;20394;-77
2022/02/04 02:14:29;;;;;;;20.20;11.88;;;7.20;99.90;;;;;;5071156;28;20115;-76
2022/02/04 02:36:26;;;;;;;20.33;11.52;;;7.30;99.90;;;;;;5070689;28;20028;-77
2022/02/04 02:42:09;;;;;;;17.70;11.73;;;7.30;99.90;;;;;;5071074;28;20051;-78
2022/02/04 02:57:30;;;;;;;20.33;11.90;;;7.30;99.90;;;;;;5050075;28;20025;-77
2022/02/04 03:00:01;;;;;;;21.00;11.50;;;7.30;99.90;;;;;;5053831;28;20115;-77
2022/02/04 03:02:26;;;;;;;21.10;12.73;;;7.30;99.90;;;;;;5053238;28;20552;-73
2022/02/04 03:04:52;;;;;;;21.05;12.70;;;7.30;99.90;;;;;;5063777;28;20020;-73
2022/02/04 03:07:18;;;;;;;21.55;12.23;;;7.30;99.90;;;;;;5070160;28;20367;-73
2022/02/04 03:09:44;;;;;;;18.52;11.95;;;7.30;99.90;;;;;;5069695;28;20470;-73
2022/02/04 03:12:10;;;;;;;23.58;12.55;;;7.40;99.90;;;;;;5069634;28;20103;-74
2022/02/04 03:14:35;;;;;;;20.58;12.55;;;7.30;99.90;;;;;;5070189;28;20024;-73
2022/02/04 03:17:02;;;;;;;18.60;11.50;;;7.40;99.90;;;;;;5069786;28;20477;-74
2022/02/04 03:19:29;;;;;;;19.73;12.57;;;7.40;99.90;;;;;;5069720;28;20021;-74
2022/02/04 03:22:01;;;;;;;26.80;12.40;;;7.40;99.90;;;;;;5052198;28;20028;-73
2022/02/04 03:24:28;;;;;;;19.52;12.18;;;7.40;99.90;;;;;;5069526;28;20029;-73
2022/02/04 03:26:58;;;;;;;19.00;12.52;;;7.40;99.90;;;;;;5070300;28;20028;-74
2022/02/04 03:29:29;;;;;;;22.25;12.68;;;7.40;99.90;;;;;;5070539;28;20434;-73
2022/02/04 03:32:01;;;;;;;21.02;11.25;;;7.40;99.90;;;;;;5052717;28;20025;-73
2022/02/04 03:34:27;;;;;;;19.52;11.63;;;7.40;99.90;;;;;;5069033;28;20017;-73
2022/02/04 03:36:53;;;;;;;20.33;12.38;;;7.40;99.90;;;;;;5069281;28;20371;-73
2022/02/04 03:39:19;;;;;;;23.88;12.80;;;7.40;99.90;;;;;;5069589;28;20037;-74
2022/02/04 03:41:44;;;;;;;28.58;12.85;;;7.40;99.90;;;;;;5069148;28;20029;-73
2022/02/04 03:44:11;;;;;;;20.80;11.55;;;7.40;99.90;;;;;;5069570;28;20434;-73
2022/02/04 03:46:36;;;;;;;19.67;12.00;;;7.40;99.90;;;;;;5050264;28;20016;-73
2022/02/04 03:49:02;;;;;;;19.75;10.95;;;7.40;99.90;;;;;;5071639;28;20501;-73
2022/02/04 03:51:28;;;;;;;18.77;12.23;;;7.40;99.90;;;;;;5044002;28;20021;-73
2022/02/04 03:53:54;;;;;;;22.00;12.40;;;7.40;99.90;;;;;;5049246;28;20028;-74
2022/02/04 03:56:20;;;;;;;20.05;12.55;;;7.40;99.90;;;;;;5049142;28;20340;-73
2022/02/04 03:58:46;;;;;;;18.42;11.98;;;7.40;99.90;;;;;;5048720;28;20029;-74
2022/02/04 04:01:12;;;;;;;19.70;11.80;;;7.40;99.90;;;;;;5049498;28;20025;-73
2022/02/04 04:03:37;;;;;;;21.63;11.65;;;7.40;99.90;;;;;;5048687;28;20114;-74
2022/02/04 04:06:04;;;;;;;19.92;12.23;;;7.40;99.90;;;;;;5047839;28;20028;-74
2022/02/04 04:08:30;;;;;;;24.05;14.40;;;7.40;99.90;;;;;;5052109;28;20022;-73
2022/02/04 04:10:55;;;;;;;29.42;12.93;;;7.40;99.90;;;;;;5062160;28;20058;-74
2022/02/04 04:13:22;;;;;;;21.40;13.23;;;7.40;99.90;;;;;;5069225;28;20044;-73
2022/02/04 04:15:47;;;;;;;21.63;12.45;;;7.40;99.90;;;;;;5050472;28;20032;-73
2022/02/04 04:18:13;;;;;;;22.42;12.68;;;7.40;99.90;;;;;;5050388;28;20021;-74
2022/02/04 04:20:44;;;;;;;23.38;12.80;;;7.40;99.90;;;;;;5069217;28;20058;-74
2022/02/04 04:23:11;;;;;;;26.90;13.15;;;7.40;99.90;;;;;;5068555;28;20052;-73
2022/02/04 04:25:37;;;;;;;21.83;12.48;;;7.40;99.90;;;;;;5068138;28;20023;-74
2022/02/04 04:28:04;;;;;;;18.55;11.80;;;7.40;99.90;;;;;;5068893;28;20474;-73
2022/02/04 04:30:30;;;;;;;20.33;13.00;;;7.40;99.90;;;;;;5051013;28;20455;-74
2022/02/04 04:32:57;;;;;;;26.10;13.80;;;7.50;99.90;;;;;;5072716;28;20096;-77
2022/02/04 04:35:25;;;;;;;24.23;13.85;;;7.50;99.90;;;;;;5072422;28;20048;-77
2022/02/04 04:38:14;;;;;;;23.65;13.80;;;7.50;99.90;;;;;;5054907;28;20107;-77
2022/02/04 04:43:24;;;;;;;21.38;12.75;;;7.50;99.90;;;;;;5072614;28;20340;-77
2022/02/04 05:29:20;;;;;;;22.30;13.45;;;7.40;99.90;;;;;;5069687;28;20044;-77
2022/02/04 05:31:45;;;;;;;25.40;14.05;;;7.50;99.90;;;;;;5070606;28;20021;-77
2022/02/04 05:34:16;;;;;;;21.35;13.48;;;7.50;99.90;;;;;;5071754;28;20089;-77
2022/02/04 05:36:45;;;;;;;24.33;13.32;;;7.50;99.90;;;;;;5071579;28;20021;-78
2022/02/04 05:39:12;;;;;;;23.60;14.18;;;7.50;99.90;;;;;;5071753;28;20025;-77
2022/02/04 05:41:42;;;;;;;21.27;13.35;;;7.50;99.90;;;;;;5062958;28;20612;-77
2022/02/04 05:44:11;;;;;;;28.10;14.00;;;7.50;99.90;;;;;;5055036;28;20050;-77
2022/02/04 05:46:49;;;;;;;24.02;15.23;;;7.50;99.90;;;;;;5060168;28;20017;-77
2022/02/04 05:49:18;;;;;;;24.63;14.07;;;7.50;99.90;;;;;;5060161;28;20021;-77
2022/02/04 05:57:11;;;;;;;28.17;14.98;;;7.50;99.90;;;;;;5056315;28;20029;-78
2022/02/04 06:02:20;;;;;;;23.73;14.45;;;7.50;99.90;;;;;;5051511;28;20112;-77
2022/02/04 06:04:59;;;;;;;22.30;13.32;;;7.40;99.90;;;;;;5051297;28;20029;-77
2022/02/04 06:07:38;;;;;;;26.05;14.68;;;7.40;99.90;;;;;;5043433;28;20055;-77
2022/02/04 06:22:03;;;;;;;22.00;14.05;;;7.50;99.90;;;;;;5079144;28;20111;-77
2022/02/04 06:23:26;;;;;;;22.05;12.82;;;7.50;99.90;;;;;;5078815;28;20086;-76
2022/02/04 06:25:55;;;;;;;28.10;15.00;;;7.50;99.90;;;;;;5078774;28;20017;-74
2022/02/04 06:28:20;;;;;;;21.33;14.10;;;7.40;99.90;;;;;;5077196;28;20029;-74
2022/02/04 06:30:49;;;;;;;28.60;14.18;;;7.50;99.90;;;;;;5077637;28;20389;-73
2022/02/04 06:33:15;;;;;;;24.70;12.85;;;7.50;99.90;;;;;;5076246;28;20486;-74
2022/02/04 06:35:42;;;;;;;30.00;14.73;;;7.50;99.90;;;;;;5058115;28;20103;-74
2022/02/04 06:38:08;;;;;;;26.77;14.38;;;7.50;99.90;;;;;;5076732;28;20032;-74
2022/02/04 06:40:34;;;;;;;28.80;14.13;;;7.50;99.90;;;;;;5076904;28;20024;-74
2022/02/04 06:43:00;;;;;;;24.92;13.73;;;7.50;99.90;;;;;;5047266;28;20522;-73
2022/02/04 06:45:25;;;;;;;24.02;14.20;;;7.50;99.90;;;;;;5050537;28;20029;-74
2022/02/04 06:47:51;;;;;;;32.05;15.23;;;7.50;99.90;;;;;;5050072;28;20025;-74
2022/02/04 06:50:17;;;;;;;26.42;13.55;;;7.50;99.90;;;;;;5052069;28;20457;-74
2022/02/04 06:52:43;;;;;;;19.70;13.23;;;7.50;99.90;;;;;;5052135;28;20014;-74
2022/02/04 06:55:11;;;;;;;26.27;13.52;;;7.50;99.90;;;;;;5052583;28;20071;-73
2022/02/04 06:57:37;;;;;;;22.55;14.38;;;7.50;99.90;;;;;;5051542;28;20025;-74
2022/02/04 07:00:04;;;;;;;21.92;14.63;;;7.50;99.90;;;;;;5054498;28;20052;-73
2022/02/04 07:02:30;;;;;;;24.58;14.20;;;7.50;99.90;;;;;;5055688;28;20087;-74
2022/02/04 07:04:56;;;;;;;28.88;13.65;;;7.50;99.90;;;;;;5037182;28;20021;-74
2022/02/04 07:07:22;;;;;;;24.38;14.68;;;7.50;99.90;;;;;;5054159;28;20052;-74
2022/02/04 07:09:57;;;;;;;27.63;14.60;;;7.50;99.90;;;;;;5054857;28;20017;-74
2022/02/04 07:15:19;;;;;;;21.95;13.55;;;7.60;99.90;;;;;;5054964;28;20379;-74
2022/02/04 07:17:59;;;;;;;23.27;13.73;;;7.50;99.90;;;;;;5054699;28;20082;-73
2022/02/04 07:20:25;;;;;;;24.02;13.55;;;7.50;99.90;;;;;;5054571;28;20486;-77
2022/02/04 07:22:50;;;;;;;23.05;14.43;;;7.50;99.90;;;;;;5055677;28;20037;-77
2022/02/04 07:25:16;;;;;;;22.27;14.60;;;7.50;99.90;;;;;;5055563;28;20021;-77
2022/02/04 07:27:43;;;;;;;24.00;14.27;;;7.60;99.90;;;;;;5055672;28;20021;-77
2022/02/04 07:30:11;;;;;;;23.67;14.68;;;7.60;99.90;;;;;;5055780;28;20017;-77
2022/02/04 07:32:49;;;;;;;23.27;15.38;;;7.60;99.90;;;;;;5029703;28;20043;-76
2022/02/04 07:35:38;;;;;;;25.67;15.52;;;7.50;99.90;;;;;;5055477;28;20063;-77
2022/02/04 07:41:01;;;;;;;26.90;16.00;;;7.60;99.90;;;;;;5064733;28;20031;-77
2022/02/04 07:43:27;;;;;;;26.85;15.30;;;7.60;99.90;;;;;;5060164;28;20045;-77
2022/02/04 07:45:53;;;;;;;31.20;16.13;;;7.70;99.90;;;;;;5072473;28;20146;-77
2022/02/04 07:48:20;;;;;;;27.20;15.85;;;7.70;99.90;;;;;;5064749;28;20069;-77
2022/02/04 07:50:48;;;;;;;31.83;16.33;;;7.70;99.90;;;;;;5056055;28;20101;-77
2022/02/04 07:53:14;;;;;;;25.73;15.75;;;7.70;99.90;;;;;;5064055;28;20017;-77
2022/02/04 07:55:40;;;;;;;29.23;16.85;;;7.80;99.90;;;;;;5052212;28;20032;-77
2022/02/04 07:58:08;;;;;;;33.63;16.75;;;7.80;99.90;;;;;;5051286;28;20028;-77
2022/02/04 08:00:35;;;;;;;31.13;16.80;;;7.80;99.90;;;;;;5051794;28;20052;-77
2022/02/04 08:03:10;;;;;;;31.27;17.40;;;7.80;99.90;;;;;;5071526;28;20111;-77
2022/02/04 08:05:35;;;;;;;37.65;18.50;;;7.80;99.90;;;;;;5074830;28;20108;-77
2022/02/04 08:08:15;;;;;;;37.17;20.10;;;7.90;99.90;;;;;;5073565;28;20052;-77
2022/02/04 08:10:54;;;;;;;37.88;21.08;;;7.90;99.90;;;;;;5073095;28;20035;-77
2022/02/04 08:14:12;;;;;;;42.05;22.33;;;8.00;99.90;;;;;;5070536;28;20032;-77
2022/02/04 08:19:07;;;;;;;37.03;19.38;;;8.10;99.90;;;;;;5072477;28;20036;-77
2022/02/04 08:21:41;;;;;;;47.38;22.52;;;8.00;99.90;;;;;;5072287;28;20032;-76
2022/02/04 08:53:52;;;;;;;33.35;18.55;;;8.20;99.90;;;;;;5073665;28;20036;-73
2022/02/04 08:56:22;;;;;;;38.70;19.48;;;8.20;99.90;;;;;;5073165;28;20032;-74
2022/02/04 08:58:54;;;;;;;40.65;20.02;;;8.30;99.90;;;;;;5055419;28;20025;-73
2022/02/04 09:01:29;;;;;;;36.72;19.95;;;8.30;99.90;;;;;;5073436;28;20032;-73
2022/02/04 09:04:06;;;;;;;33.85;19.15;;;8.30;99.90;;;;;;5055231;28;20055;-73
2022/02/04 09:06:46;;;;;;;39.42;20.38;;;8.30;99.90;;;;;;5055332;28;20450;-74
2022/02/04 09:09:27;;;;;;;38.20;19.70;;;8.40;99.90;;;;;;5073106;28;20500;-73
2022/02/04 09:12:03;;;;;;;43.60;21.67;;;8.40;99.90;;;;;;5053244;28;20024;-74
2022/02/04 09:17:31;;;;;;;37.67;18.00;;;8.50;99.90;;;;;;5052873;28;20040;-73
2022/02/04 09:20:08;;;;;;;29.30;17.30;;;8.50;99.90;;;;;;5052115;28;20029;-73
2022/02/04 09:22:46;;;;;;;38.33;16.45;;;8.50;99.90;;;;;;5052073;28;20502;-73
2022/02/04 09:25:12;;;;;;;35.35;18.30;;;8.60;99.90;;;;;;5051652;28;20502;-74
2022/02/04 09:27:43;;;;;;;29.17;16.48;;;8.50;99.90;;;;;;5051907;28;20108;-73
2022/02/04 09:30:12;;;;;;;32.15;17.35;;;8.50;99.90;;;;;;5051912;28;20104;-74
2022/02/04 09:32:39;;;;;;;36.97;17.95;;;8.60;99.90;;;;;;5051661;28;20028;-73
2022/02/04 09:35:07;;;;;;;26.10;13.82;;;8.60;99.90;;;;;;5051564;28;20025;-74
2022/02/04 09:37:33;;;;;;;29.50;15.40;;;8.60;99.90;;;;;;5033595;28;20060;-74
2022/02/04 09:40:05;;;;;;;31.17;16.25;;;8.60;99.90;;;;;;5062622;28;20497;-73
2022/02/04 09:42:31;;;;;;;35.60;16.20;;;8.70;99.90;;;;;;5071489;28;20052;-74
2022/02/04 09:44:57;;;;;;;33.75;16.48;;;8.80;99.90;;;;;;5070643;28;20024;-74
2022/02/04 09:47:25;;;;;;;32.42;17.55;;;8.80;99.90;;;;;;5071485;28;20020;-73
2022/02/04 09:49:58;;;;;;;35.50;15.50;;;8.90;99.90;;;;;;5071482;28;20054;-73
2022/02/04 10:17:10;;;;;;;25.33;9.48;;;9.30;99.90;;;;;;5071520;28;20068;-73
2022/02/04 10:22:05;;;;;;;23.00;8.07;;;9.40;99.90;;;;;;5071566;28;20344;-73
2022/02/04 10:24:32;;;;;;;17.77;7.35;;;9.40;99.90;;;;;;5071274;28;20049;-73
2022/02/04 10:27:16;;;;;;;16.70;6.97;;;9.50;99.90;;;;;;5052975;28;20374;-73
2022/02/04 10:29:49;;;;;;;16.42;5.30;;;9.60;99.90;;;;;;5053123;28;20020;-73
2022/02/04 10:32:15;;;;;;;15.40;7.25;;;9.60;99.90;;;;;;5070962;28;20502;-73
2022/02/04 10:34:47;;;;;;;14.40;6.47;;;9.60;99.90;;;;;;5071136;28;20059;-73
2022/02/04 10:37:27;;;;;;;22.75;9.48;;;9.60;99.90;;;;;;5071018;28;20074;-73
2022/02/04 10:42:43;;;;;;;14.15;9.25;;;9.70;99.90;;;;;;5070921;28;20047;-73
2022/02/04 11:03:30;;;;;;;15.23;8.30;;;9.70;99.90;;;;;;5074286;28;20028;-74
2022/02/04 11:06:11;;;;;;;18.20;9.15;;;9.70;99.90;;;;;;5074278;28;20457;-73
2022/02/04 11:08:54;;;;;;;28.70;10.33;;;9.70;99.90;;;;;;5056482;28;20021;-73
2022/02/04 11:11:44;;;;;;;21.65;10.35;;;9.70;99.90;;;;;;5074242;28;20434;-73
2022/02/04 11:31:25;;;;;;;31.38;12.20;;;9.60;99.90;;;;;;5074014;28;20074;-73
2022/02/04 11:34:46;;;;;;;25.92;11.93;;;9.70;99.90;;;;;;5072765;28;20498;-73
2022/02/04 11:54:29;;;;;;;23.63;11.77;;;10.00;99.90;;;;;;5073523;28;20042;-73
2022/02/04 11:56:58;;;;;;;24.27;11.98;;;9.90;99.90;;;;;;5073160;28;20482;-73
2022/02/04 11:59:35;;;;;;;21.75;12.60;;;9.90;99.90;;;;;;5073474;28;20537;-73
2022/02/04 12:02:02;;;;;;;23.50;13.02;;;10.00;99.90;;;;;;5073541;28;20115;-73
2022/02/04 12:04:29;;;;;;;25.83;12.85;;;10.00;99.90;;;;;;5073268;28;20371;-73
2022/02/04 12:06:55;;;;;;;29.23;14.10;;;10.00;99.90;;;;;;5072537;28;20498;-73
2022/02/04 12:09:33;;;;;;;31.08;14.18;;;9.90;99.90;;;;;;5055366;28;20028;-73
2022/02/04 12:11:59;;;;;;;28.95;14.13;;;10.00;99.90;;;;;;5073149;28;20108;-73
2022/02/04 12:14:33;;;;;;;27.60;13.57;;;10.00;99.90;;;;;;5072229;28;20103;-73
2022/02/04 12:17:12;;;;;;;30.02;14.95;;;10.00;99.90;;;;;;5073078;28;20412;-73
2022/02/04 12:19:46;;;;;;;36.30;15.25;;;10.10;99.90;;;;;;5073085;28;20025;-73
2022/02/04 12:22:12;;;;;;;31.42;15.20;;;10.10;99.90;;;;;;5065398;28;20032;-73
2022/02/04 12:24:45;;;;;;;28.25;14.30;;;10.10;99.90;;;;;;5064786;28;20082;-73
2022/02/04 12:27:31;;;;;;;24.25;13.63;;;10.20;99.90;;;;;;5073002;28;20066;-73
2022/02/04 12:29:58;;;;;;;29.40;14.88;;;10.10;99.90;;;;;;5073110;28;20025;-73
2022/02/04 12:32:24;;;;;;;25.73;14.07;;;10.10;99.90;;;;;;5054809;28;20401;-74
2022/02/04 12:34:50;;;;;;;33.60;15.57;;;10.10;99.90;;;;;;5054853;28;20120;-73
2022/02/04 12:37:20;;;;;;;29.77;14.60;;;10.10;99.90;;;;;;5054928;28;20120;-73
2022/02/04 12:39:47;;;;;;;31.77;15.02;;;10.20;99.90;;;;;;5072703;28;20021;-73
2022/02/04 12:42:15;;;;;;;28.10;15.25;;;10.20;99.90;;;;;;5072517;28;20059;-73
2022/02/04 12:44:43;;;;;;;29.33;15.52;;;10.20;99.90;;;;;;5054453;28;20469;-73
2022/02/04 12:47:14;;;;;;;31.65;14.52;;;10.30;99.90;;;;;;5072678;28;20103;-73
2022/02/04 12:49:52;;;;;;;31.92;12.57;;;10.40;99.90;;;;;;5072630;28;20078;-73
2022/02/04 12:55:05;;;;;;;22.33;12.43;;;10.30;99.90;;;;;;5072249;28;20488;-73
2022/02/04 12:57:40;;;;;;;24.70;13.43;;;10.40;99.90;;;;;;5054508;28;20456;-73
2022/02/04 13:08:18;;;;;;;23.02;12.30;;;10.50;99.90;;;;;;5072476;28;20086;-73
2022/02/04 13:10:54;;;;;;;26.73;13.75;;;10.50;99.90;;;;;;5072101;28;20016;-73
2022/02/04 13:13:21;;;;;;;23.67;11.75;;;10.50;99.90;;;;;;5054313;28;20394;-73
2022/02/04 13:15:47;;;;;;;30.63;12.93;;;10.50;99.90;;;;;;5071935;28;20031;-73
2022/02/04 13:18:15;;;;;;;23.25;12.68;;;10.50;99.90;;;;;;5070999;28;20024;-73
2022/02/04 13:20:45;;;;;;;29.90;11.35;;;10.60;99.90;;;;;;5072153;28;20028;-73
2022/02/04 13:23:20;;;;;;;36.53;15.85;;;10.60;99.90;;;;;;5072070;28;20021;-73
2022/02/04 13:25:49;;;;;;;27.50;14.77;;;10.60;99.90;;;;;;5072679;28;20475;-73
2022/02/04 13:28:20;;;;;;;29.55;13.13;;;10.60;99.90;;;;;;5054386;28;20021;-73
2022/02/04 13:31:01;;;;;;;31.88;14.35;;;10.70;99.90;;;;;;5054723;28;20419;-73
2022/02/04 13:33:41;;;;;;;30.52;14.23;;;10.70;99.90;;;;;;5054248;28;20027;-73
2022/02/04 13:39:16;;;;;;;22.83;13.80;;;10.80;99.90;;;;;;5071758;28;20036;-74
2022/02/04 13:44:35;;;;;;;21.58;12.73;;;10.80;99.90;;;;;;5071639;28;20041;-73
2022/02/04 13:58:47;;;;;;;25.98;14.07;;;10.90;99.90;;;;;;5067862;28;20033;-73
2022/02/04 14:03:48;;;;;;;31.23;14.63;;;10.80;99.90;;;;;;5071507;28;20032;-74
2022/02/04 14:06:25;;;;;;;25.42;13.57;;;10.80;99.90;;;;;;5071598;28;20017;-74
2022/02/04 14:08:55;;;;;;;30.70;14.32;;;10.80;99.90;;;;;;5053533;28;20070;-73
2022/02/04 14:11:36;;;;;;;40.50;14.65;;;10.80;99.90;;;;;;5071282;28;20024;-74
2022/02/04 14:14:18;;;;;;;27.17;13.50;;;10.70;99.90;;;;;;5071541;28;20107;-74
2022/02/04 14:16:54;;;;;;;32.47;14.50;;;10.70;99.90;;;;;;5071113;28;20067;-74
2022/02/04 14:19:23;;;;;;;37.83;18.20;;;10.60;99.90;;;;;;5068239;28;20502;-73
2022/02/04 14:21:49;;;;;;;36.83;14.85;;;10.60;99.90;;;;;;5071508;28;20031;-73
2022/02/04 14:24:15;;;;;;;36.92;14.93;;;10.60;99.90;;;;;;5071204;28;20028;-73
2022/02/04 14:26:46;;;;;;;28.00;14.77;;;10.60;99.90;;;;;;5071208;28;20509;-73
2022/02/04 14:31:50;;;;;;;33.58;15.65;;;10.50;99.90;;;;;;5075394;28;20029;-73
2022/02/04 14:50:38;;;;;;;32.45;15.45;;;10.30;99.90;;;;;;5055200;28;20094;-73
2022/02/04 15:03:38;;;;;;;38.20;18.45;;;10.10;99.90;;;;;;5054513;28;20398;-73
2022/02/04 15:06:18;;;;;;;39.35;19.00;;;10.10;99.90;;;;;;5054454;28;20638;-73
2022/02/04 15:08:44;;;;;;;31.67;16.92;;;10.10;99.90;;;;;;5036762;28;20024;-73
2022/02/04 15:11:18;;;;;;;35.85;17.25;;;10.00;99.90;;;;;;5052065;28;20024;-73
2022/02/04 15:13:48;;;;;;;34.40;17.77;;;10.00;99.90;;;;;;5074633;28;20028;-73
2022/02/04 15:16:15;;;;;;;38.80;18.40;;;10.00;99.90;;;;;;5074490;28;20471;-73
2022/02/04 15:18:42;;;;;;;44.22;18.17;;;9.90;99.90;;;;;;5074415;28;20051;-73
2022/02/04 15:21:16;;;;;;;37.67;18.42;;;10.00;99.90;;;;;;5074258;28;20546;-73
2022/02/04 15:23:47;;;;;;;44.00;18.80;;;9.90;99.90;;;;;;5074245;28;20048;-73
2022/02/04 15:26:14;;;;;;;37.90;18.30;;;9.90;99.90;;;;;;5074085;28;20078;-73
2022/02/04 15:28:46;;;;;;;39.35;18.75;;;9.80;99.90;;;;;;5073031;28;20033;-74
2022/02/04 15:31:28;;;;;;;37.35;17.50;;;9.80;99.90;;;;;;5072898;28;20024;-74
2022/02/04 15:33:54;;;;;;;38.80;17.67;;;9.80;99.90;;;;;;5074184;28;20528;-73
2022/02/04 15:36:37;;;;;;;37.25;18.52;;;9.90;99.90;;;;;;5074211;28;20024;-73
2022/02/04 15:39:06;;;;;;;35.67;19.25;;;9.80;99.90;;;;;;5074423;28;20028;-73
2022/02/04 15:41:34;;;;;;;37.35;18.77;;;9.80;99.90;;;;;;5065784;28;20078;-73
2022/02/04 15:44:07;;;;;;;36.00;19.75;;;9.80;99.90;;;;;;5055681;28;20025;-73
2022/02/04 15:52:25;;;;;;;40.00;19.83;;;9.70;99.90;;;;;;5074539;28;20032;-73
2022/02/04 16:00:33;;;;;;;44.05;19.90;;;9.60;99.90;;;;;;5056042;28;20025;-73
2022/02/04 16:03:20;;;;;;;56.72;22.33;;;9.60;99.90;;;;;;5074477;28;20028;-73
2022/02/04 16:05:47;;;;;;;37.60;19.67;;;9.60;99.90;;;;;;5074155;28;20386;-73
2022/02/04 16:08:16;;;;;;;35.97;19.80;;;9.60;99.90;;;;;;5073923;28;20378;-73
2022/02/04 16:13:27;;;;;;;;;;;9.60;99.90;;;;;;5073978;28;20032;-73
2022/02/04 16:18:44;;;;;;;36.72;17.55;;;9.50;99.90;;;;;;5073769;28;20106;-73
2022/02/04 16:21:18;;;;;;;37.60;19.45;;;9.40;99.90;;;;;;5071810;28;20032;-74
2022/02/04 16:28:47;;;;;;;40.70;19.23;;;9.40;99.90;;;;;;5072673;28;20036;-73
2022/02/04 16:31:16;;;;;;;42.53;20.77;;;9.40;99.90;;;;;;5073235;28;20093;-73
2022/02/04 16:33:44;;;;;;;41.90;19.70;;;9.40;99.90;;;;;;5055126;28;20110;-73
2022/02/04 16:36:18;;;;;;;38.75;20.48;;;9.40;99.90;;;;;;5073460;28;20028;-73
2022/02/04 16:38:52;;;;;;;41.05;21.02;;;9.40;99.90;;;;;;5073308;28;20012;-73
2022/02/04 16:41:25;;;;;;;44.35;21.23;;;9.30;99.90;;;;;;5072746;28;20070;-73
2022/02/04 16:43:51;;;;;;;40.08;20.17;;;9.30;99.90;;;;;;5070783;28;20053;-74
2022/02/04 16:46:19;;;;;;;34.22;19.75;;;9.30;99.90;;;;;;5073643;28;20043;-73
2022/02/04 16:48:45;;;;;;;41.40;20.48;;;9.20;99.90;;;;;;5073875;28;20021;-73
2022/02/04 16:51:13;;;;;;;35.63;20.23;;;9.20;99.90;;;;;;5073604;28;20100;-73
2022/02/04 16:53:40;;;;;;;42.45;21.15;;;9.20;99.90;;;;;;5073267;28;20026;-73
2022/02/04 16:56:05;;;;;;;42.33;20.15;;;9.20;99.90;;;;;;5073290;28;20016;-73
2022/02/04 16:58:31;;;;;;;36.55;20.45;;;9.10;99.90;;;;;;5073319;28;20490;-73
2022/02/04 17:00:58;;;;;;;38.70;20.40;;;9.10;99.90;;;;;;5072919;28;20021;-73
2022/02/04 17:03:24;;;;;;;40.30;21.35;;;9.10;99.90;;;;;;5072549;28;20086;-73
2022/02/04 17:05:56;;;;;;;37.15;20.10;;;9.10;99.90;;;;;;5073122;28;20016;-73
2022/02/04 17:08:36;;;;;;;40.80;21.67;;;9.10;99.90;;;;;;5073349;28;20024;-73
2022/02/04 17:11:08;;;;;;;40.13;19.60;;;9.10;99.90;;;;;;5071912;28;20461;-72
2022/02/04 17:13:34;;;;;;;41.90;19.83;;;9.10;99.90;;;;;;5073303;28;20047;-73
2022/02/04 17:16:00;;;;;;;41.47;18.77;;;9.10;99.90;;;;;;5071236;28;20379;-73
2022/02/04 17:18:26;;;;;;;38.53;19.85;;;9.00;99.90;;;;;;5072768;28;20020;-73
2022/02/04 17:20:52;;;;;;;39.83;19.77;;;9.10;99.90;;;;;;5070025;28;20523;-73
2022/02/04 17:23:31;;;;;;;40.83;21.40;;;9.10;99.90;;;;;;5062096;28;20020;-73
2022/02/04 17:25:58;;;;;;;36.53;19.95;;;9.10;99.90;;;;;;5062246;28;20023;-73
2022/02/04 17:28:30;;;;;;;34.67;18.23;;;9.10;99.90;;;;;;5072494;28;20098;-72
2022/02/04 17:30:58;;;;;;;39.85;20.42;;;9.00;99.90;;;;;;5072506;28;20021;-73
2022/02/04 17:33:25;;;;;;;50.35;19.65;;;9.00;99.90;;;;;;5072494;28;20033;-73
2022/02/04 17:35:52;;;;;;;36.63;20.58;;;9.00;99.90;;;;;;5071372;28;20643;-73
2022/02/04 17:38:18;;;;;;;42.88;19.35;;;9.00;99.90;;;;;;5072761;28;20107;-73
2022/02/04 17:40:44;;;;;;;40.25;19.70;;;9.00;99.90;;;;;;5071467;28;20107;-72
2022/02/04 17:43:11;;;;;;;39.28;20.45;;;9.00;99.90;;;;;;5070884;28;20432;-73
2022/02/04 17:45:37;;;;;;;37.40;20.70;;;9.00;99.90;;;;;;5072425;28;20431;-73
2022/02/04 17:48:11;;;;;;;37.65;19.92;;;8.90;99.90;;;;;;5072565;28;20078;-73
2022/02/04 17:51:31;;;;;;;35.95;19.02;;;8.90;99.90;;;;;;5070320;28;20042;-73
2022/02/04 17:53:34;;;;;;;30.52;18.10;;;8.90;99.90;;;;;;5064213;28;20459;-73
2022/02/04 17:56:04;;;;;;;;;;;8.90;99.90;;;;;;5072998;28;20028;-72
2022/02/04 18:09:01;;;;;;;44.50;20.08;;;8.80;99.90;;;;;;5040732;28;20393;-73
2022/02/04 18:11:27;;;;;;;45.25;20.23;;;8.80;99.90;;;;;;5070389;28;20108;-73
2022/02/04 18:13:53;;;;;;;41.45;20.00;;;8.80;99.90;;;;;;5072219;28;20020;-76
2022/02/04 18:16:19;;;;;;;38.83;20.67;;;8.80;99.90;;;;;;5072462;28;20051;-77
2022/02/04 18:18:45;;;;;;;38.40;20.00;;;8.80;99.90;;;;;;5072363;28;20024;-76
2022/02/04 18:21:10;;;;;;;40.47;20.48;;;8.80;99.90;;;;;;5071705;28;20021;-77
2022/02/04 18:23:36;;;;;;;39.53;19.52;;;8.80;99.90;;;;;;5072147;28;20464;-76
2022/02/04 18:26:02;;;;;;;37.75;20.17;;;8.80;99.90;;;;;;5071632;28;20024;-76
2022/02/04 18:28:31;;;;;;;38.03;21.33;;;8.80;99.90;;;;;;5071494;28;20021;-77
2022/02/04 18:30:57;;;;;;;36.20;20.58;;;8.70;99.90;;;;;;5072365;28;20020;-76
2022/02/04 18:33:23;;;;;;;40.45;20.55;;;8.70;99.90;;;;;;5072624;28;20073;-76
2022/02/04 18:35:58;;;;;;;43.13;21.58;;;8.70;99.90;;;;;;5071136;28;20527;-77
2022/02/04 18:38:36;;;;;;;39.88;21.10;;;8.70;99.90;;;;;;5075948;28;20029;-76
2022/02/04 18:49:01;;;;;;;35.03;22.30;;;8.60;99.90;;;;;;5064959;28;20435;-76
2022/02/04 18:54:11;;;;;;;43.15;23.17;;;8.60;99.90;;;;;;5092299;28;20627;-76
2022/02/04 18:57:23;;;;;;;41.72;23.70;;;8.60;99.90;;;;;;5072419;28;20073;-77
2022/02/04 18:59:37;;;;;;;40.10;21.75;;;8.60;99.90;;;;;;5075887;28;20533;-76
2022/02/04 19:02:03;;;;;;;38.38;22.75;;;8.60;99.90;;;;;;5034514;28;20167;-76
2022/02/04 19:04:38;;;;;;;59.67;30.02;;;8.60;99.90;;;;;;5052371;28;20036;-76
2022/02/04 19:07:11;;;;;;;66.97;33.17;;;8.60;99.90;;;;;;5078831;28;20020;-76
2022/02/04 19:09:39;;;;;;;53.60;27.27;;;8.60;99.90;;;;;;5084229;28;20481;-77
2022/02/04 19:12:13;;;;;;;47.80;26.13;;;8.60;99.90;;;;;;5071407;28;20078;-76